Sherwood Park, Canada
Current Conditions -  °F | °C
As of 6:00 PM on Friday 24 Oct 2014 (Local Time) from CYXD Reporting Station
Scattered Clouds Scattered Clouds  
Wind Chill: 50°   Ceiling: Unl
Heat Index: 50°   Visibility: 9mi
Dew Point: 21°   Wind: 8mph
Humidity: 32%   Direction: 290°WNW
Pressure: 29.89"   Gusts: NA
Location:  53.52°N, 113.32°W
Report Text: CYXD 250000Z AUTO 29007KT 9SM FEW073 SCT083 10/M06 A2989 RMKSLP141
Loading
Personal Weather Stations






























Interactive Weather Map
Tropical Storm Tracking
New forecast layout! Learn more

10-Day Weather Forecast

Advertisements
Track Severe Weather on mobile